Terminal Aerodrome Forecast
Issued by NWS Norman, OK

Home | Current Version | Previous Version | Text Only | Print | Product List | Glossary On
Versions: 1 2 3 4 5 6 7 8 9 10 11 12 13 14 15 16 17 18 19 20 21 22 23 24 25 26 27 28 29 30 31 32 33 34 35 36 37
000
FTUS44 KOUN 291124
TAFSPS
TAF
KSPS 291124Z 2912/3012 17007KT P6SM SCT030 BKN120
     FM291700 21008KT P6SM BKN035 BKN100
     FM300100 VRB05KT P6SM SCT040 BKN100
      TEMPO 3004/3008 3SM TSRA BKN030CB
     FM300800 35013KT 5SM -TSRA BR SCT015 OVC030CB
      TEMPO 3008/3011 2SM TSRA BR OVC015CB=

USA.gov is the U.S. government's official web portal to all federal, state and local government web resources and services.